Houston's Hourly Summary for Monday, May 14, 2018
Hour Temp
(f)
RH
(%)
Solar Rad.
(MJ/m2)
Rainfall
(in)
Wind
(mph)
5/14/2018 12:00 AM 76 82 0 0 2.04
5/14/2018 1:00 AM 75 85 0 0 0
5/14/2018 2:00 AM 73 87 0 0 0
5/14/2018 3:00 AM 73 89 0 0 0
5/14/2018 4:00 AM 73 90 0 0 0
5/14/2018 5:00 AM 71 91 0 0 0
5/14/2018 6:00 AM 70 99 0 0 0
5/14/2018 7:00 AM 71 99 0.05 0 0
5/14/2018 8:00 AM 74 82 0.52 0 0
5/14/2018 9:00 AM 78 73 1.07 0 0
5/14/2018 10:00 AM 81 61 1.82 0 0.01
5/14/2018 11:00 AM 84 52 2.13 0 2.36
5/14/2018 12:00 PM 84 49 1.88 0 3.99
5/14/2018 1:00 PM 86 32 3.11 0 5.1
5/14/2018 2:00 PM 87 34 3.19 0 5.26
5/14/2018 3:00 PM 89 27 3.14 0 5.38
5/14/2018 4:00 PM 89 31 2.6 0 5.03
5/14/2018 5:00 PM 88 35 1.81 0 6.05
5/14/2018 6:00 PM 85 45 1.02 0 5.65
5/14/2018 7:00 PM 83 47 0.53 0 5.14
5/14/2018 8:00 PM 81 55 0.19 0 4.8
5/14/2018 9:00 PM 78 57 0 0 2.73
5/14/2018 10:00 PM 75 71 0 0 0.23
5/14/2018 11:00 PM 73 79 0 0 0
Data Summary 79 64 23.06 0.00 2.24